sensor_id;sensor_type;location;lat;lon;timestamp;temperature;humidity
22153;DHT22;11242;50.536;12.688;2023-05-01T00:02:08;1.50;99.90
22153;DHT22;11242;50.536;12.688;2023-05-01T00:04:34;1.50;99.90
22153;DHT22;11242;50.536;12.688;2023-05-01T00:06:59;1.40;99.90
22153;DHT22;11242;50.536;12.688;2023-05-01T00:09:28;1.40;99.90
22153;DHT22;11242;50.536;12.688;2023-05-01T00:11:53;1.40;99.90
22153;DHT22;11242;50.536;12.688;2023-05-01T00:14:19;1.40;99.90
22153;DHT22;11242;50.536;12.688;2023-05-01T00:16:45;1.40;99.90
22153;DHT22;11242;50.536;12.688;2023-05-01T00:19:11;1.50;99.90
22153;DHT22;11242;50.536;12.688;2023-05-01T00:21:37;1.50;99.90
22153;DHT22;11242;50.536;12.688;2023-05-01T00:24:02;1.50;99.90
22153;DHT22;11242;50.536;12.688;2023-05-01T00:26:28;1.40;99.90
22153;DHT22;11242;50.536;12.688;2023-05-01T00:28:56;1.30;99.90
22153;DHT22;11242;50.536;12.688;2023-05-01T00:31:25;1.30;99.90
22153;DHT22;11242;50.536;12.688;2023-05-01T00:33:51;1.20;99.90
22153;DHT22;11242;50.536;12.688;2023-05-01T00:36:16;1.10;99.90
22153;DHT22;11242;50.536;12.688;2023-05-01T00:38:42;1.10;99.90
22153;DHT22;11242;50.536;12.688;2023-05-01T00:41:07;1.20;99.90
22153;DHT22;11242;50.536;12.688;2023-05-01T00:43:34;1.20;99.90
22153;DHT22;11242;50.536;12.688;2023-05-01T00:45:59;1.20;99.90
22153;DHT22;11242;50.536;12.688;2023-05-01T00:48:25;1.20;99.90
22153;DHT22;11242;50.536;12.688;2023-05-01T00:50:52;1.30;99.90
22153;DHT22;11242;50.536;12.688;2023-05-01T00:53:19;1.20;99.90
22153;DHT22;11242;50.536;12.688;2023-05-01T00:55:46;1.20;99.90
22153;DHT22;11242;50.536;12.688;2023-05-01T00:58:12;1.20;99.90
22153;DHT22;11242;50.536;12.688;2023-05-01T01:00:40;1.10;99.90
22153;DHT22;11242;50.536;12.688;2023-05-01T01:03:05;1.00;99.90
22153;DHT22;11242;50.536;12.688;2023-05-01T01:05:35;0.90;99.90
22153;DHT22;11242;50.536;12.688;2023-05-01T01:08:29;1.00;99.90
22153;DHT22;11242;50.536;12.688;2023-05-01T01:11:07;1.00;99.90
22153;DHT22;11242;50.536;12.688;2023-05-01T01:13:47;1.00;99.90
22153;DHT22;11242;50.536;12.688;2023-05-01T01:16:30;1.00;99.90
22153;DHT22;11242;50.536;12.688;2023-05-01T01:19:17;1.10;99.90
22153;DHT22;11242;50.536;12.688;2023-05-01T01:21:51;1.10;99.90
22153;DHT22;11242;50.536;12.688;2023-05-01T01:24:45;1.20;99.90
22153;DHT22;11242;50.536;12.688;2023-05-01T01:27:35;1.10;99.90
22153;DHT22;11242;50.536;12.688;2023-05-01T01:33:37;1.10;99.90
22153;DHT22;11242;50.536;12.688;2023-05-01T01:36:09;1.00;99.90
22153;DHT22;11242;50.536;12.688;2023-05-01T01:38:45;1.00;99.90
22153;DHT22;11242;50.536;12.688;2023-05-01T01:41:16;1.10;99.90
22153;DHT22;11242;50.536;12.688;2023-05-01T01:43:51;1.10;99.90
22153;DHT22;11242;50.536;12.688;2023-05-01T01:46:19;1.20;99.90
22153;DHT22;11242;50.536;12.688;2023-05-01T01:48:48;1.10;99.90
22153;DHT22;11242;50.536;12.688;2023-05-01T01:51:17;1.10;99.90
22153;DHT22;11242;50.536;12.688;2023-05-01T01:53:47;0.90;99.90
22153;DHT22;11242;50.536;12.688;2023-05-01T01:56:14;0.80;99.90
22153;DHT22;11242;50.536;12.688;2023-05-01T01:58:43;0.80;99.90
22153;DHT22;11242;50.536;12.688;2023-05-01T02:01:11;0.80;99.90
22153;DHT22;11242;50.536;12.688;2023-05-01T02:03:38;0.70;99.90
22153;DHT22;11242;50.536;12.688;2023-05-01T02:06:05;0.70;99.90
22153;DHT22;11242;50.536;12.688;2023-05-01T02:08:34;0.70;99.90
22153;DHT22;11242;50.536;12.688;2023-05-01T02:11:01;0.60;99.90
22153;DHT22;11242;50.536;12.688;2023-05-01T02:13:28;0.60;99.90
22153;DHT22;11242;50.536;12.688;2023-05-01T02:15:59;0.60;99.90
22153;DHT22;11242;50.536;12.688;2023-05-01T02:18:28;0.60;99.90
22153;DHT22;11242;50.536;12.688;2023-05-01T02:20:56;0.50;99.90
22153;DHT22;11242;50.536;12.688;2023-05-01T02:23:26;0.50;99.90
22153;DHT22;11242;50.536;12.688;2023-05-01T02:25:52;0.40;99.90
22153;DHT22;11242;50.536;12.688;2023-05-01T02:28:22;0.50;99.90
22153;DHT22;11242;50.536;12.688;2023-05-01T02:30:48;0.60;99.90
22153;DHT22;11242;50.536;12.688;2023-05-01T02:33:14;0.60;99.90
22153;DHT22;11242;50.536;12.688;2023-05-01T02:35:43;0.60;99.90
22153;DHT22;11242;50.536;12.688;2023-05-01T02:38:11;0.60;99.90
22153;DHT22;11242;50.536;12.688;2023-05-01T02:40:38;0.60;99.90
22153;DHT22;11242;50.536;12.688;2023-05-01T02:43:07;0.60;99.90
22153;DHT22;11242;50.536;12.688;2023-05-01T02:45:37;0.50;99.90
22153;DHT22;11242;50.536;12.688;2023-05-01T02:48:04;0.50;99.90
22153;DHT22;11242;50.536;12.688;2023-05-01T02:50:32;0.60;99.90
22153;DHT22;11242;50.536;12.688;2023-05-01T02:52:59;0.60;99.90
22153;DHT22;11242;50.536;12.688;2023-05-01T02:55:43;0.60;99.90
22153;DHT22;11242;50.536;12.688;2023-05-01T02:58:14;0.60;99.90
22153;DHT22;11242;50.536;12.688;2023-05-01T03:00:40;0.60;99.90
22153;DHT22;11242;50.536;12.688;2023-05-01T03:03:06;0.60;99.90
22153;DHT22;11242;50.536;12.688;2023-05-01T03:05:32;0.60;99.90
22153;DHT22;11242;50.536;12.688;2023-05-01T03:07:57;0.60;99.90
22153;DHT22;11242;50.536;12.688;2023-05-01T03:10:23;0.50;99.90
22153;DHT22;11242;50.536;12.688;2023-05-01T03:12:49;0.50;99.90
22153;DHT22;11242;50.536;12.688;2023-05-01T03:15:14;0.50;99.90
22153;DHT22;11242;50.536;12.688;2023-05-01T03:17:42;0.40;99.90
22153;DHT22;11242;50.536;12.688;2023-05-01T03:20:07;0.40;99.90
22153;DHT22;11242;50.536;12.688;2023-05-01T03:22:35;0.30;99.90
22153;DHT22;11242;50.536;12.688;2023-05-01T03:25:01;0.30;99.90
22153;DHT22;11242;50.536;12.688;2023-05-01T03:27:28;0.30;99.90
22153;DHT22;11242;50.536;12.688;2023-05-01T03:29:55;0.30;99.90
22153;DHT22;11242;50.536;12.688;2023-05-01T03:32:22;0.40;99.90
22153;DHT22;11242;50.536;12.688;2023-05-01T03:34:49;0.30;99.90
22153;DHT22;11242;50.536;12.688;2023-05-01T03:37:16;0.20;99.90
22153;DHT22;11242;50.536;12.688;2023-05-01T03:39:41;0.30;99.90
22153;DHT22;11242;50.536;12.688;2023-05-01T03:42:25;0.30;99.90
22153;DHT22;11242;50.536;12.688;2023-05-01T03:44:57;0.40;99.90
22153;DHT22;11242;50.536;12.688;2023-05-01T03:47:22;0.40;99.90
22153;DHT22;11242;50.536;12.688;2023-05-01T03:49:48;0.40;99.90
22153;DHT22;11242;50.536;12.688;2023-05-01T03:52:13;0.50;99.90
22153;DHT22;11242;50.536;12.688;2023-05-01T03:54:40;0.50;99.90
22153;DHT22;11242;50.536;12.688;2023-05-01T03:57:26;0.60;99.90
22153;DHT22;11242;50.536;12.688;2023-05-01T03:59:52;0.80;99.90
22153;DHT22;11242;50.536;12.688;2023-05-01T04:02:19;0.90;99.90
22153;DHT22;11242;50.536;12.688;2023-05-01T04:04:44;0.90;99.90
22153;DHT22;11242;50.536;12.688;2023-05-01T04:07:10;0.90;99.90
22153;DHT22;11242;50.536;12.688;2023-05-01T04:09:36;0.90;99.90
22153;DHT22;11242;50.536;12.688;2023-05-01T04:12:02;1.00;99.90
22153;DHT22;11242;50.536;12.688;2023-05-01T04:14:28;1.10;99.90
22153;DHT22;11242;50.536;12.688;2023-05-01T04:16:53;1.10;99.90
22153;DHT22;11242;50.536;12.688;2023-05-01T04:19:19;1.20;99.90
22153;DHT22;11242;50.536;12.688;2023-05-01T04:21:49;1.20;99.90
22153;DHT22;11242;50.536;12.688;2023-05-01T04:24:15;1.30;99.90
22153;DHT22;11242;50.536;12.688;2023-05-01T04:26:41;1.50;99.90
22153;DHT22;11242;50.536;12.688;2023-05-01T04:29:09;1.60;99.90
22153;DHT22;11242;50.536;12.688;2023-05-01T04:31:35;1.80;99.90
22153;DHT22;11242;50.536;12.688;2023-05-01T04:34:00;1.90;99.90
22153;DHT22;11242;50.536;12.688;2023-05-01T04:36:26;2.00;99.90
22153;DHT22;11242;50.536;12.688;2023-05-01T04:38:51;2.20;99.90
22153;DHT22;11242;50.536;12.688;2023-05-01T04:41:17;2.30;99.90
22153;DHT22;11242;50.536;12.688;2023-05-01T04:43:44;2.50;99.90
22153;DHT22;11242;50.536;12.688;2023-05-01T04:46:10;2.60;99.90
22153;DHT22;11242;50.536;12.688;2023-05-01T04:48:36;2.70;99.90
22153;DHT22;11242;50.536;12.688;2023-05-01T04:51:02;2.90;99.90
22153;DHT22;11242;50.536;12.688;2023-05-01T04:53:32;3.10;99.90
22153;DHT22;11242;50.536;12.688;2023-05-01T04:55:57;3.10;99.90
22153;DHT22;11242;50.536;12.688;2023-05-01T04:58:24;3.40;99.90
22153;DHT22;11242;50.536;12.688;2023-05-01T05:00:55;3.60;99.90
22153;DHT22;11242;50.536;12.688;2023-05-01T05:03:22;4.30;99.90
22153;DHT22;11242;50.536;12.688;2023-05-01T05:05:48;4.90;99.90
22153;DHT22;11242;50.536;12.688;2023-05-01T05:08:14;5.70;99.90
22153;DHT22;11242;50.536;12.688;2023-05-01T05:10:45;6.30;99.90
22153;DHT22;11242;50.536;12.688;2023-05-01T05:13:20;6.60;99.90
22153;DHT22;11242;50.536;12.688;2023-05-01T05:15:53;6.70;99.90
22153;DHT22;11242;50.536;12.688;2023-05-01T05:18:21;6.80;99.90
22153;DHT22;11242;50.536;12.688;2023-05-01T05:20:46;7.40;99.90
22153;DHT22;11242;50.536;12.688;2023-05-01T05:23:12;7.90;99.90
22153;DHT22;11242;50.536;12.688;2023-05-01T05:25:38;8.50;99.90
22153;DHT22;11242;50.536;12.688;2023-05-01T05:28:04;9.30;99.90
22153;DHT22;11242;50.536;12.688;2023-05-01T05:30:29;10.00;99.90
22153;DHT22;11242;50.536;12.688;2023-05-01T05:32:56;10.40;99.90
22153;DHT22;11242;50.536;12.688;2023-05-01T05:35:22;10.50;99.90
22153;DHT22;11242;50.536;12.688;2023-05-01T05:37:47;11.10;99.90
22153;DHT22;11242;50.536;12.688;2023-05-01T05:40:13;11.60;99.90
22153;DHT22;11242;50.536;12.688;2023-05-01T05:42:50;12.00;99.90
22153;DHT22;11242;50.536;12.688;2023-05-01T05:45:15;13.00;99.90
22153;DHT22;11242;50.536;12.688;2023-05-01T05:47:41;14.30;99.90
22153;DHT22;11242;50.536;12.688;2023-05-01T05:50:07;14.70;97.10
22153;DHT22;11242;50.536;12.688;2023-05-01T05:52:33;15.20;93.70
22153;DHT22;11242;50.536;12.688;2023-05-01T05:55:00;15.50;92.10
22153;DHT22;11242;50.536;12.688;2023-05-01T05:57:25;15.80;91.40
22153;DHT22;11242;50.536;12.688;2023-05-01T05:59:51;15.40;90.40
22153;DHT22;11242;50.536;12.688;2023-05-01T06:02:21;15.40;90.50
22153;DHT22;11242;50.536;12.688;2023-05-01T06:04:46;15.70;91.60
22153;DHT22;11242;50.536;12.688;2023-05-01T06:07:13;16.00;87.80
22153;DHT22;11242;50.536;12.688;2023-05-01T06:09:38;15.90;81.90
22153;DHT22;11242;50.536;12.688;2023-05-01T06:12:04;15.80;81.30
22153;DHT22;11242;50.536;12.688;2023-05-01T06:14:31;15.80;80.10
22153;DHT22;11242;50.536;12.688;2023-05-01T06:16:57;16.40;75.20
22153;DHT22;11242;50.536;12.688;2023-05-01T06:19:23;16.30;76.00
22153;DHT22;11242;50.536;12.688;2023-05-01T06:21:52;16.60;75.10
22153;DHT22;11242;50.536;12.688;2023-05-01T06:24:18;17.50;71.10
22153;DHT22;11242;50.536;12.688;2023-05-01T06:26:48;17.30;73.90
22153;DHT22;11242;50.536;12.688;2023-05-01T06:29:14;17.50;69.90
22153;DHT22;11242;50.536;12.688;2023-05-01T06:31:39;17.30;67.40
22153;DHT22;11242;50.536;12.688;2023-05-01T06:34:05;17.30;67.90
22153;DHT22;11242;50.536;12.688;2023-05-01T06:36:44;16.90;67.20
22153;DHT22;11242;50.536;12.688;2023-05-01T06:39:10;16.90;68.30
22153;DHT22;11242;50.536;12.688;2023-05-01T06:41:35;17.70;69.00
22153;DHT22;11242;50.536;12.688;2023-05-01T06:44:03;18.80;64.40
22153;DHT22;11242;50.536;12.688;2023-05-01T06:46:29;20.10;59.90
22153;DHT22;11242;50.536;12.688;2023-05-01T06:48:55;21.20;58.40
22153;DHT22;11242;50.536;12.688;2023-05-01T06:51:20;21.70;54.10
22153;DHT22;11242;50.536;12.688;2023-05-01T06:53:46;21.60;51.20
22153;DHT22;11242;50.536;12.688;2023-05-01T06:56:11;21.00;54.60
22153;DHT22;11242;50.536;12.688;2023-05-01T06:58:37;21.80;51.50
22153;DHT22;11242;50.536;12.688;2023-05-01T07:01:03;22.90;51.00
22153;DHT22;11242;50.536;12.688;2023-05-01T07:03:28;23.10;49.70
22153;DHT22;11242;50.536;12.688;2023-05-01T07:05:54;22.60;48.60
22153;DHT22;11242;50.536;12.688;2023-05-01T07:08:20;22.20;48.20
22153;DHT22;11242;50.536;12.688;2023-05-01T07:10:46;21.70;49.50
22153;DHT22;11242;50.536;12.688;2023-05-01T07:13:11;23.00;48.60
22153;DHT22;11242;50.536;12.688;2023-05-01T07:15:37;23.20;47.60
22153;DHT22;11242;50.536;12.688;2023-05-01T07:18:03;24.10;46.50
22153;DHT22;11242;50.536;12.688;2023-05-01T07:20:32;24.20;43.60
22153;DHT22;11242;50.536;12.688;2023-05-01T07:22:59;23.40;44.20
22153;DHT22;11242;50.536;12.688;2023-05-01T07:25:24;23.40;44.70
22153;DHT22;11242;50.536;12.688;2023-05-01T07:27:50;22.20;46.50
22153;DHT22;11242;50.536;12.688;2023-05-01T07:30:15;23.10;46.70
22153;DHT22;11242;50.536;12.688;2023-05-01T07:32:41;23.70;43.70
22153;DHT22;11242;50.536;12.688;2023-05-01T07:35:07;22.90;44.80
22153;DHT22;11242;50.536;12.688;2023-05-01T07:37:32;22.40;45.50
22153;DHT22;11242;50.536;12.688;2023-05-01T07:39:58;22.30;44.10
22153;DHT22;11242;50.536;12.688;2023-05-01T07:42:26;22.30;45.40
22153;DHT22;11242;50.536;12.688;2023-05-01T07:44:51;22.30;45.10
22153;DHT22;11242;50.536;12.688;2023-05-01T07:47:17;21.20;46.00
22153;DHT22;11242;50.536;12.688;2023-05-01T07:49:42;20.60;47.40
22153;DHT22;11242;50.536;12.688;2023-05-01T07:52:08;20.20;47.50
22153;DHT22;11242;50.536;12.688;2023-05-01T07:54:34;20.70;47.50
22153;DHT22;11242;50.536;12.688;2023-05-01T07:56:59;20.30;47.00
22153;DHT22;11242;50.536;12.688;2023-05-01T07:59:26;20.30;48.20
22153;DHT22;11242;50.536;12.688;2023-05-01T08:01:52;20.70;47.10
22153;DHT22;11242;50.536;12.688;2023-05-01T08:04:18;21.00;47.30
22153;DHT22;11242;50.536;12.688;2023-05-01T08:06:47;22.20;44.70
22153;DHT22;11242;50.536;12.688;2023-05-01T08:09:13;22.00;45.50
22153;DHT22;11242;50.536;12.688;2023-05-01T08:11:38;21.80;45.40
22153;DHT22;11242;50.536;12.688;2023-05-01T08:14:04;21.20;46.20
22153;DHT22;11242;50.536;12.688;2023-05-01T08:16:29;21.20;46.90
22153;DHT22;11242;50.536;12.688;2023-05-01T08:18:55;20.90;46.20
22153;DHT22;11242;50.536;12.688;2023-05-01T08:21:21;19.90;47.50
22153;DHT22;11242;50.536;12.688;2023-05-01T08:23:46;19.60;47.90
22153;DHT22;11242;50.536;12.688;2023-05-01T08:26:12;19.80;49.20
22153;DHT22;11242;50.536;12.688;2023-05-01T08:28:37;20.20;48.50
22153;DHT22;11242;50.536;12.688;2023-05-01T08:31:03;21.20;46.90
22153;DHT22;11242;50.536;12.688;2023-05-01T08:33:29;21.10;46.30
22153;DHT22;11242;50.536;12.688;2023-05-01T08:35:54;21.40;46.10
22153;DHT22;11242;50.536;12.688;2023-05-01T08:38:20;21.80;44.20
22153;DHT22;11242;50.536;12.688;2023-05-01T08:40:50;20.50;44.60
22153;DHT22;11242;50.536;12.688;2023-05-01T08:43:17;19.70;46.50
22153;DHT22;11242;50.536;12.688;2023-05-01T08:45:43;19.50;48.40
22153;DHT22;11242;50.536;12.688;2023-05-01T08:48:11;20.00;47.10
22153;DHT22;11242;50.536;12.688;2023-05-01T08:50:38;20.50;46.20
22153;DHT22;11242;50.536;12.688;2023-05-01T08:53:05;20.70;46.70
22153;DHT22;11242;50.536;12.688;2023-05-01T08:55:32;22.00;45.00
22153;DHT22;11242;50.536;12.688;2023-05-01T08:57:59;20.80;45.30
22153;DHT22;11242;50.536;12.688;2023-05-01T09:00:25;20.20;46.70
22153;DHT22;11242;50.536;12.688;2023-05-01T09:02:52;21.80;45.00
22153;DHT22;11242;50.536;12.688;2023-05-01T09:05:19;22.40;44.70
22153;DHT22;11242;50.536;12.688;2023-05-01T09:07:46;21.10;44.30
22153;DHT22;11242;50.536;12.688;2023-05-01T09:10:13;20.70;44.70
22153;DHT22;11242;50.536;12.688;2023-05-01T09:12:40;21.40;44.80
22153;DHT22;11242;50.536;12.688;2023-05-01T09:15:07;21.20;43.00
22153;DHT22;11242;50.536;12.688;2023-05-01T09:17:34;20.00;43.80
22153;DHT22;11242;50.536;12.688;2023-05-01T09:20:02;19.50;45.80
22153;DHT22;11242;50.536;12.688;2023-05-01T09:22:31;20.00;45.00
22153;DHT22;11242;50.536;12.688;2023-05-01T09:24:57;19.30;46.30
22153;DHT22;11242;50.536;12.688;2023-05-01T09:27:26;19.20;46.20
22153;DHT22;11242;50.536;12.688;2023-05-01T09:29:52;18.90;46.90
22153;DHT22;11242;50.536;12.688;2023-05-01T09:32:25;18.00;46.60
22153;DHT22;11242;50.536;12.688;2023-05-01T09:34:55;17.60;49.00
22153;DHT22;11242;50.536;12.688;2023-05-01T09:37:29;18.10;48.60
22153;DHT22;11242;50.536;12.688;2023-05-01T09:40:05;17.70;48.30
22153;DHT22;11242;50.536;12.688;2023-05-01T09:42:32;17.40;50.20
22153;DHT22;11242;50.536;12.688;2023-05-01T09:44:59;17.20;50.20
22153;DHT22;11242;50.536;12.688;2023-05-01T09:47:26;17.50;50.90
22153;DHT22;11242;50.536;12.688;2023-05-01T09:49:54;17.60;49.10
22153;DHT22;11242;50.536;12.688;2023-05-01T09:52:22;17.90;49.50
22153;DHT22;11242;50.536;12.688;2023-05-01T09:54:47;17.70;48.30
22153;DHT22;11242;50.536;12.688;2023-05-01T09:57:13;17.50;49.30
22153;DHT22;11242;50.536;12.688;2023-05-01T09:59:38;17.40;48.40
22153;DHT22;11242;50.536;12.688;2023-05-01T10:02:04;17.60;49.20
22153;DHT22;11242;50.536;12.688;2023-05-01T10:04:33;18.20;50.30
22153;DHT22;11242;50.536;12.688;2023-05-01T10:07:10;18.30;50.50
22153;DHT22;11242;50.536;12.688;2023-05-01T10:09:37;18.50;48.10
22153;DHT22;11242;50.536;12.688;2023-05-01T10:12:03;18.80;49.20
22153;DHT22;11242;50.536;12.688;2023-05-01T10:14:29;18.60;47.40
22153;DHT22;11242;50.536;12.688;2023-05-01T10:16:58;18.30;47.50
22153;DHT22;11242;50.536;12.688;2023-05-01T10:19:23;17.70;48.30
22153;DHT22;11242;50.536;12.688;2023-05-01T10:21:49;17.60;49.70
22153;DHT22;11242;50.536;12.688;2023-05-01T10:24:15;17.80;49.00
22153;DHT22;11242;50.536;12.688;2023-05-01T10:26:41;17.80;48.90
22153;DHT22;11242;50.536;12.688;2023-05-01T10:29:08;17.80;49.10
22153;DHT22;11242;50.536;12.688;2023-05-01T10:31:33;17.70;50.10
22153;DHT22;11242;50.536;12.688;2023-05-01T10:34:00;17.50;48.40
22153;DHT22;11242;50.536;12.688;2023-05-01T10:38:56;18.20;48.40
22153;DHT22;11242;50.536;12.688;2023-05-01T10:44:23;18.70;49.20
22153;DHT22;11242;50.536;12.688;2023-05-01T10:46:48;18.60;48.70
22153;DHT22;11242;50.536;12.688;2023-05-01T10:49:14;18.50;48.00
22153;DHT22;11242;50.536;12.688;2023-05-01T10:52:01;18.70;48.90
22153;DHT22;11242;50.536;12.688;2023-05-01T10:54:31;19.10;48.20
22153;DHT22;11242;50.536;12.688;2023-05-01T10:57:01;19.00;49.00
22153;DHT22;11242;50.536;12.688;2023-05-01T11:02:28;19.10;46.90
22153;DHT22;11242;50.536;12.688;2023-05-01T11:04:54;19.20;47.00
22153;DHT22;11242;50.536;12.688;2023-05-01T11:07:21;19.00;47.20
22153;DHT22;11242;50.536;12.688;2023-05-01T11:09:49;19.00;48.50
22153;DHT22;11242;50.536;12.688;2023-05-01T11:15:09;18.90;48.50
22153;DHT22;11242;50.536;12.688;2023-05-01T11:20:10;18.60;49.50
22153;DHT22;11242;50.536;12.688;2023-05-01T11:22:38;18.60;48.00
22153;DHT22;11242;50.536;12.688;2023-05-01T11:25:20;18.80;48.90
22153;DHT22;11242;50.536;12.688;2023-05-01T11:27:48;19.00;48.70
22153;DHT22;11242;50.536;12.688;2023-05-01T11:30:14;19.40;48.80
22153;DHT22;11242;50.536;12.688;2023-05-01T11:32:42;19.80;48.10
22153;DHT22;11242;50.536;12.688;2023-05-01T11:35:23;19.90;47.70
22153;DHT22;11242;50.536;12.688;2023-05-01T11:37:49;19.60;48.50
22153;DHT22;11242;50.536;12.688;2023-05-01T11:42:49;18.80;48.50
22153;DHT22;11242;50.536;12.688;2023-05-01T11:45:15;18.30;49.10
22153;DHT22;11242;50.536;12.688;2023-05-01T11:47:41;18.60;50.00
22153;DHT22;11242;50.536;12.688;2023-05-01T11:50:07;19.00;48.70
22153;DHT22;11242;50.536;12.688;2023-05-01T11:52:46;19.00;48.10
22153;DHT22;11242;50.536;12.688;2023-05-01T11:55:14;19.00;48.40
22153;DHT22;11242;50.536;12.688;2023-05-01T11:57:51;19.00;48.60
22153;DHT22;11242;50.536;12.688;2023-05-01T12:00:28;19.20;49.90
22153;DHT22;11242;50.536;12.688;2023-05-01T12:02:59;19.10;49.20
22153;DHT22;11242;50.536;12.688;2023-05-01T12:05:26;19.20;48.70
22153;DHT22;11242;50.536;12.688;2023-05-01T12:08:10;19.30;48.50
22153;DHT22;11242;50.536;12.688;2023-05-01T12:10:36;19.30;49.90
22153;DHT22;11242;50.536;12.688;2023-05-01T12:13:03;19.70;50.10
22153;DHT22;11242;50.536;12.688;2023-05-01T12:15:29;19.60;50.50
22153;DHT22;11242;50.536;12.688;2023-05-01T12:17:55;19.60;49.20
22153;DHT22;11242;50.536;12.688;2023-05-01T12:23:06;19.10;48.90
22153;DHT22;11242;50.536;12.688;2023-05-01T12:25:33;19.00;49.40
22153;DHT22;11242;50.536;12.688;2023-05-01T12:28:07;18.90;50.70
22153;DHT22;11242;50.536;12.688;2023-05-01T12:30:35;18.90;49.50
22153;DHT22;11242;50.536;12.688;2023-05-01T12:33:10;18.70;50.40
22153;DHT22;11242;50.536;12.688;2023-05-01T12:35:37;18.90;50.00
22153;DHT22;11242;50.536;12.688;2023-05-01T12:40:50;18.70;49.10
22153;DHT22;11242;50.536;12.688;2023-05-01T12:43:36;19.10;52.00
22153;DHT22;11242;50.536;12.688;2023-05-01T12:46:03;19.00;49.40
22153;DHT22;11242;50.536;12.688;2023-05-01T12:48:30;18.80;50.50
22153;DHT22;11242;50.536;12.688;2023-05-01T12:50:56;18.40;51.00
22153;DHT22;11242;50.536;12.688;2023-05-01T12:53:23;17.90;52.60
22153;DHT22;11242;50.536;12.688;2023-05-01T12:55:51;18.00;53.30
22153;DHT22;11242;50.536;12.688;2023-05-01T12:58:17;17.80;52.80
22153;DHT22;11242;50.536;12.688;2023-05-01T13:00:48;17.90;53.10
22153;DHT22;11242;50.536;12.688;2023-05-01T13:03:14;18.20;53.30
22153;DHT22;11242;50.536;12.688;2023-05-01T13:05:58;18.10;53.50
22153;DHT22;11242;50.536;12.688;2023-05-01T13:08:29;18.10;54.20
22153;DHT22;11242;50.536;12.688;2023-05-01T13:10:57;18.00;54.10
22153;DHT22;11242;50.536;12.688;2023-05-01T13:13:27;17.80;54.80
22153;DHT22;11242;50.536;12.688;2023-05-01T13:15:53;17.50;56.90
22153;DHT22;11242;50.536;12.688;2023-05-01T13:18:27;17.70;56.20
22153;DHT22;11242;50.536;12.688;2023-05-01T13:20:53;18.00;56.00
22153;DHT22;11242;50.536;12.688;2023-05-01T13:23:18;18.10;55.90
22153;DHT22;11242;50.536;12.688;2023-05-01T13:25:44;18.20;55.60
22153;DHT22;11242;50.536;12.688;2023-05-01T13:28:16;18.10;55.90
22153;DHT22;11242;50.536;12.688;2023-05-01T13:30:42;17.80;55.40
22153;DHT22;11242;50.536;12.688;2023-05-01T13:33:09;18.20;55.80
22153;DHT22;11242;50.536;12.688;2023-05-01T13:35:35;17.70;56.50
22153;DHT22;11242;50.536;12.688;2023-05-01T13:38:02;17.30;57.20
22153;DHT22;11242;50.536;12.688;2023-05-01T13:40:29;17.50;58.40
22153;DHT22;11242;50.536;12.688;2023-05-01T13:42:54;17.70;58.00
22153;DHT22;11242;50.536;12.688;2023-05-01T13:45:20;17.80;58.50
22153;DHT22;11242;50.536;12.688;2023-05-01T13:47:48;18.00;58.30
22153;DHT22;11242;50.536;12.688;2023-05-01T13:50:14;17.90;58.00
22153;DHT22;11242;50.536;12.688;2023-05-01T13:52:43;17.60;58.20
22153;DHT22;11242;50.536;12.688;2023-05-01T13:55:09;17.40;58.10
22153;DHT22;11242;50.536;12.688;2023-05-01T13:57:38;17.40;58.20
22153;DHT22;11242;50.536;12.688;2023-05-01T14:00:09;17.60;58.80
22153;DHT22;11242;50.536;12.688;2023-05-01T14:02:43;17.40;59.20
22153;DHT22;11242;50.536;12.688;2023-05-01T14:05:09;17.30;60.30
22153;DHT22;11242;50.536;12.688;2023-05-01T14:08:00;17.50;59.90
22153;DHT22;11242;50.536;12.688;2023-05-01T14:10:27;17.50;59.10
22153;DHT22;11242;50.536;12.688;2023-05-01T14:12:55;17.40;58.60
22153;DHT22;11242;50.536;12.688;2023-05-01T14:15:21;17.30;59.30
22153;DHT22;11242;50.536;12.688;2023-05-01T14:17:49;17.40;59.00
22153;DHT22;11242;50.536;12.688;2023-05-01T14:20:15;17.30;59.20
22153;DHT22;11242;50.536;12.688;2023-05-01T14:22:43;17.20;59.20
22153;DHT22;11242;50.536;12.688;2023-05-01T14:25:30;17.00;59.30
22153;DHT22;11242;50.536;12.688;2023-05-01T14:27:59;16.80;59.80
22153;DHT22;11242;50.536;12.688;2023-05-01T14:30:33;16.50;60.40
22153;DHT22;11242;50.536;12.688;2023-05-01T14:33:11;16.40;61.20
22153;DHT22;11242;50.536;12.688;2023-05-01T14:35:50;16.40;60.90
22153;DHT22;11242;50.536;12.688;2023-05-01T14:38:18;16.40;61.10
22153;DHT22;11242;50.536;12.688;2023-05-01T14:40:44;16.60;61.10
22153;DHT22;11242;50.536;12.688;2023-05-01T14:43:13;16.40;61.20
22153;DHT22;11242;50.536;12.688;2023-05-01T14:45:41;16.50;61.40
22153;DHT22;11242;50.536;12.688;2023-05-01T14:48:09;16.50;62.90
22153;DHT22;11242;50.536;12.688;2023-05-01T14:50:35;16.70;62.90
22153;DHT22;11242;50.536;12.688;2023-05-01T14:53:01;16.90;62.10
22153;DHT22;11242;50.536;12.688;2023-05-01T14:55:30;16.90;61.30
22153;DHT22;11242;50.536;12.688;2023-05-01T14:57:59;16.70;62.30
22153;DHT22;11242;50.536;12.688;2023-05-01T15:00:25;16.60;63.10
22153;DHT22;11242;50.536;12.688;2023-05-01T15:02:52;16.50;63.50
22153;DHT22;11242;50.536;12.688;2023-05-01T15:05:19;16.60;64.40
22153;DHT22;11242;50.536;12.688;2023-05-01T15:07:45;16.60;64.00
22153;DHT22;11242;50.536;12.688;2023-05-01T15:10:11;16.80;63.60
22153;DHT22;11242;50.536;12.688;2023-05-01T15:12:37;16.80;62.40
22153;DHT22;11242;50.536;12.688;2023-05-01T15:15:03;16.50;63.40
22153;DHT22;11242;50.536;12.688;2023-05-01T15:17:28;16.50;64.30
22153;DHT22;11242;50.536;12.688;2023-05-01T15:19:54;16.40;63.70
22153;DHT22;11242;50.536;12.688;2023-05-01T15:22:20;16.60;64.00
22153;DHT22;11242;50.536;12.688;2023-05-01T15:24:45;16.70;63.30
22153;DHT22;11242;50.536;12.688;2023-05-01T15:27:11;16.60;62.80
22153;DHT22;11242;50.536;12.688;2023-05-01T15:29:37;16.70;64.10
22153;DHT22;11242;50.536;12.688;2023-05-01T15:32:04;16.80;64.70
22153;DHT22;11242;50.536;12.688;2023-05-01T15:34:29;17.00;63.90
22153;DHT22;11242;50.536;12.688;2023-05-01T15:36:55;17.00;62.80
22153;DHT22;11242;50.536;12.688;2023-05-01T15:39:21;16.80;63.20
22153;DHT22;11242;50.536;12.688;2023-05-01T15:41:46;16.90;63.60
22153;DHT22;11242;50.536;12.688;2023-05-01T15:44:12;17.00;64.20
22153;DHT22;11242;50.536;12.688;2023-05-01T15:46:38;17.10;64.00
22153;DHT22;11242;50.536;12.688;2023-05-01T15:49:07;17.10;63.40
22153;DHT22;11242;50.536;12.688;2023-05-01T15:51:33;16.70;63.00